sensor_id;sensor_type;location;lat;lon;timestamp;temperature;humidity
44729;DHT22;30457;53.590;9.922;2023-04-01T00:04:05;15.10;60.80
44729;DHT22;30457;53.590;9.922;2023-04-01T00:08:31;15.10;60.70
44729;DHT22;30457;53.590;9.922;2023-04-01T00:12:57;15.10;60.80
44729;DHT22;30457;53.590;9.922;2023-04-01T00:17:22;15.10;60.80
44729;DHT22;30457;53.590;9.922;2023-04-01T00:21:48;15.10;60.90
44729;DHT22;30457;53.590;9.922;2023-04-01T00:26:14;15.10;60.90
44729;DHT22;30457;53.590;9.922;2023-04-01T00:30:40;15.00;60.90
44729;DHT22;30457;53.590;9.922;2023-04-01T00:35:06;15.10;60.90
44729;DHT22;30457;53.590;9.922;2023-04-01T00:39:32;15.00;60.90
44729;DHT22;30457;53.590;9.922;2023-04-01T00:44:19;15.00;60.80
44729;DHT22;30457;53.590;9.922;2023-04-01T00:48:51;15.00;61.20
44729;DHT22;30457;53.590;9.922;2023-04-01T00:53:18;15.00;60.90
44729;DHT22;30457;53.590;9.922;2023-04-01T00:57:46;15.00;61.00
44729;DHT22;30457;53.590;9.922;2023-04-01T01:02:15;14.90;61.00
44729;DHT22;30457;53.590;9.922;2023-04-01T01:06:51;14.90;61.20
44729;DHT22;30457;53.590;9.922;2023-04-01T01:11:26;14.90;61.40
44729;DHT22;30457;53.590;9.922;2023-04-01T01:16:02;14.90;61.30
44729;DHT22;30457;53.590;9.922;2023-04-01T01:30:20;14.90;61.50
44729;DHT22;30457;53.590;9.922;2023-04-01T01:39:42;14.80;61.60
44729;DHT22;30457;53.590;9.922;2023-04-01T01:44:11;14.80;61.30
44729;DHT22;30457;53.590;9.922;2023-04-01T01:48:38;14.80;61.40
44729;DHT22;30457;53.590;9.922;2023-04-01T01:53:07;14.80;61.50
44729;DHT22;30457;53.590;9.922;2023-04-01T01:57:36;14.80;61.50
44729;DHT22;30457;53.590;9.922;2023-04-01T02:02:06;14.80;61.60
44729;DHT22;30457;53.590;9.922;2023-04-01T02:06:38;14.80;61.60
44729;DHT22;30457;53.590;9.922;2023-04-01T02:11:07;14.80;61.80
44729;DHT22;30457;53.590;9.922;2023-04-01T02:15:42;14.80;61.70
44729;DHT22;30457;53.590;9.922;2023-04-01T02:20:13;14.70;61.70
44729;DHT22;30457;53.590;9.922;2023-04-01T02:24:41;14.80;61.90
44729;DHT22;30457;53.590;9.922;2023-04-01T02:29:10;14.70;61.70
44729;DHT22;30457;53.590;9.922;2023-04-01T02:33:38;14.70;61.70
44729;DHT22;30457;53.590;9.922;2023-04-01T02:38:05;14.70;61.70
44729;DHT22;30457;53.590;9.922;2023-04-01T02:42:31;14.70;61.80
44729;DHT22;30457;53.590;9.922;2023-04-01T02:46:56;14.70;61.90
44729;DHT22;30457;53.590;9.922;2023-04-01T02:51:22;14.70;61.90
44729;DHT22;30457;53.590;9.922;2023-04-01T02:55:48;14.70;62.00
44729;DHT22;30457;53.590;9.922;2023-04-01T03:00:16;14.70;61.90
44729;DHT22;30457;53.590;9.922;2023-04-01T03:04:42;14.70;61.80
44729;DHT22;30457;53.590;9.922;2023-04-01T03:09:08;14.70;61.90
44729;DHT22;30457;53.590;9.922;2023-04-01T03:13:33;14.60;61.80
44729;DHT22;30457;53.590;9.922;2023-04-01T03:17:59;14.70;62.00
44729;DHT22;30457;53.590;9.922;2023-04-01T03:22:25;14.60;62.10
44729;DHT22;30457;53.590;9.922;2023-04-01T03:26:50;14.60;62.10
44729;DHT22;30457;53.590;9.922;2023-04-01T03:31:18;14.60;62.20
44729;DHT22;30457;53.590;9.922;2023-04-01T03:35:50;14.60;62.20
44729;DHT22;30457;53.590;9.922;2023-04-01T03:40:18;14.60;63.00
44729;DHT22;30457;53.590;9.922;2023-04-01T03:44:44;14.60;62.10
44729;DHT22;30457;53.590;9.922;2023-04-01T03:49:11;14.60;62.00
44729;DHT22;30457;53.590;9.922;2023-04-01T03:53:37;14.60;62.20
44729;DHT22;30457;53.590;9.922;2023-04-01T03:58:06;14.60;62.20
44729;DHT22;30457;53.590;9.922;2023-04-01T04:02:31;14.60;62.30
44729;DHT22;30457;53.590;9.922;2023-04-01T04:06:57;14.60;62.10
44729;DHT22;30457;53.590;9.922;2023-04-01T04:11:24;14.60;62.20
44729;DHT22;30457;53.590;9.922;2023-04-01T04:15:51;14.60;62.30
44729;DHT22;30457;53.590;9.922;2023-04-01T04:20:17;14.60;62.30
44729;DHT22;30457;53.590;9.922;2023-04-01T04:24:43;14.60;62.10
44729;DHT22;30457;53.590;9.922;2023-04-01T04:29:11;14.60;62.40
44729;DHT22;30457;53.590;9.922;2023-04-01T04:33:37;14.50;62.30
44729;DHT22;30457;53.590;9.922;2023-04-01T04:38:03;14.50;62.40
44729;DHT22;30457;53.590;9.922;2023-04-01T04:42:29;14.50;62.50
44729;DHT22;30457;53.590;9.922;2023-04-01T04:46:59;14.50;62.50
44729;DHT22;30457;53.590;9.922;2023-04-01T04:51:25;14.50;62.60
44729;DHT22;30457;53.590;9.922;2023-04-01T04:55:51;14.50;62.70
44729;DHT22;30457;53.590;9.922;2023-04-01T05:00:34;14.50;62.70
44729;DHT22;30457;53.590;9.922;2023-04-01T05:05:03;14.50;62.50
44729;DHT22;30457;53.590;9.922;2023-04-01T05:09:29;14.50;62.60
44729;DHT22;30457;53.590;9.922;2023-04-01T05:13:55;14.50;62.70
44729;DHT22;30457;53.590;9.922;2023-04-01T05:18:21;14.40;62.80
44729;DHT22;30457;53.590;9.922;2023-04-01T05:22:47;14.40;62.80
44729;DHT22;30457;53.590;9.922;2023-04-01T05:27:13;14.40;62.00
44729;DHT22;30457;53.590;9.922;2023-04-01T05:31:40;14.40;61.20
44729;DHT22;30457;53.590;9.922;2023-04-01T05:36:10;14.30;60.90
44729;DHT22;30457;53.590;9.922;2023-04-01T05:40:36;14.10;60.70
44729;DHT22;30457;53.590;9.922;2023-04-01T05:45:02;14.00;60.70
44729;DHT22;30457;53.590;9.922;2023-04-01T05:49:50;13.90;60.70
44729;DHT22;30457;53.590;9.922;2023-04-01T05:54:16;13.80;60.40
44729;DHT22;30457;53.590;9.922;2023-04-01T05:58:46;13.70;60.40
44729;DHT22;30457;53.590;9.922;2023-04-01T06:03:15;13.50;60.40
44729;DHT22;30457;53.590;9.922;2023-04-01T06:07:41;13.40;60.60
44729;DHT22;30457;53.590;9.922;2023-04-01T06:17:41;13.20;60.40
44729;DHT22;30457;53.590;9.922;2023-04-01T06:22:29;13.10;60.40
44729;DHT22;30457;53.590;9.922;2023-04-01T06:32:49;12.90;60.50
44729;DHT22;30457;53.590;9.922;2023-04-01T06:37:10;12.80;60.60
44729;DHT22;30457;53.590;9.922;2023-04-01T06:51:44;12.50;60.90
44729;DHT22;30457;53.590;9.922;2023-04-01T06:56:32;12.50;60.90
44729;DHT22;30457;53.590;9.922;2023-04-01T07:01:10;12.40;60.80
44729;DHT22;30457;53.590;9.922;2023-04-01T07:05:37;12.30;61.20
44729;DHT22;30457;53.590;9.922;2023-04-01T07:10:09;12.30;61.10
44729;DHT22;30457;53.590;9.922;2023-04-01T07:14:56;12.30;61.50
44729;DHT22;30457;53.590;9.922;2023-04-01T07:19:44;12.20;60.80
44729;DHT22;30457;53.590;9.922;2023-04-01T07:24:17;12.20;61.00
44729;DHT22;30457;53.590;9.922;2023-04-01T07:28:56;12.10;60.70
44729;DHT22;30457;53.590;9.922;2023-04-01T07:38:33;12.10;61.30
44729;DHT22;30457;53.590;9.922;2023-04-01T08:07:17;11.90;61.60
44729;DHT22;30457;53.590;9.922;2023-04-01T08:13:07;11.90;61.20
44729;DHT22;30457;53.590;9.922;2023-04-01T08:22:15;11.80;60.90
44729;DHT22;30457;53.590;9.922;2023-04-01T08:26:47;11.80;61.10
44729;DHT22;30457;53.590;9.922;2023-04-01T08:31:35;11.80;61.00
44729;DHT22;30457;53.590;9.922;2023-04-01T08:36:12;11.80;61.10
44729;DHT22;30457;53.590;9.922;2023-04-01T08:40:55;11.80;61.40
44729;DHT22;30457;53.590;9.922;2023-04-01T09:00:30;11.60;61.20
44729;DHT22;30457;53.590;9.922;2023-04-01T09:05:31;11.60;61.10
44729;DHT22;30457;53.590;9.922;2023-04-01T09:10:21;11.60;61.00
44729;DHT22;30457;53.590;9.922;2023-04-01T09:20:00;11.50;61.50
44729;DHT22;30457;53.590;9.922;2023-04-01T09:24:58;11.50;61.60
44729;DHT22;30457;53.590;9.922;2023-04-01T09:29:53;11.50;62.10
44729;DHT22;30457;53.590;9.922;2023-04-01T09:39:34;11.50;61.50
44729;DHT22;30457;53.590;9.922;2023-04-01T09:44:18;11.50;61.40
44729;DHT22;30457;53.590;9.922;2023-04-01T10:09:27;11.80;62.10
44729;DHT22;30457;53.590;9.922;2023-04-01T10:38:41;12.00;61.80
44729;DHT22;30457;53.590;9.922;2023-04-01T10:43:37;12.00;61.50
44729;DHT22;30457;53.590;9.922;2023-04-01T11:09:44;12.10;60.20
44729;DHT22;30457;53.590;9.922;2023-04-01T11:14:31;12.10;60.30
44729;DHT22;30457;53.590;9.922;2023-04-01T11:19:17;12.10;60.50
44729;DHT22;30457;53.590;9.922;2023-04-01T11:24:02;12.10;60.40
44729;DHT22;30457;53.590;9.922;2023-04-01T11:42:47;12.00;60.30
44729;DHT22;30457;53.590;9.922;2023-04-01T11:47:48;12.00;60.00
44729;DHT22;30457;53.590;9.922;2023-04-01T11:57:37;11.90;59.80
44729;DHT22;30457;53.590;9.922;2023-04-01T12:02:42;11.90;59.50
44729;DHT22;30457;53.590;9.922;2023-04-01T12:12:29;11.80;59.40
44729;DHT22;30457;53.590;9.922;2023-04-01T12:17:09;11.70;59.70
44729;DHT22;30457;53.590;9.922;2023-04-01T12:21:52;11.60;59.60
44729;DHT22;30457;53.590;9.922;2023-04-01T12:26:30;11.60;59.90
44729;DHT22;30457;53.590;9.922;2023-04-01T12:35:36;11.50;59.50
44729;DHT22;30457;53.590;9.922;2023-04-01T12:40:18;11.50;59.60
44729;DHT22;30457;53.590;9.922;2023-04-01T12:45:11;11.50;59.50
44729;DHT22;30457;53.590;9.922;2023-04-01T12:50:26;11.40;59.30
44729;DHT22;30457;53.590;9.922;2023-04-01T13:19:27;11.20;59.30
44729;DHT22;30457;53.590;9.922;2023-04-01T13:24:00;11.10;59.60
44729;DHT22;30457;53.590;9.922;2023-04-01T13:28:59;11.10;59.50
44729;DHT22;30457;53.590;9.922;2023-04-01T13:34:02;11.10;59.30
44729;DHT22;30457;53.590;9.922;2023-04-01T13:38:52;11.10;59.10
44729;DHT22;30457;53.590;9.922;2023-04-01T13:43:28;11.00;59.00
44729;DHT22;30457;53.590;9.922;2023-04-01T13:48:14;11.00;59.20
44729;DHT22;30457;53.590;9.922;2023-04-01T14:21:30;11.00;59.00
44729;DHT22;30457;53.590;9.922;2023-04-01T14:26:18;11.00;59.10
44729;DHT22;30457;53.590;9.922;2023-04-01T14:30:50;11.00;59.00
44729;DHT22;30457;53.590;9.922;2023-04-01T14:35:49;10.90;59.20
44729;DHT22;30457;53.590;9.922;2023-04-01T14:40:21;10.90;58.80
44729;DHT22;30457;53.590;9.922;2023-04-01T14:49:42;10.90;58.90
44729;DHT22;30457;53.590;9.922;2023-04-01T14:58:46;10.80;58.80
44729;DHT22;30457;53.590;9.922;2023-04-01T15:03:24;10.80;59.00
44729;DHT22;30457;53.590;9.922;2023-04-01T15:08:08;10.80;58.70
44729;DHT22;30457;53.590;9.922;2023-04-01T15:12:53;10.70;59.00
44729;DHT22;30457;53.590;9.922;2023-04-01T15:31:51;10.50;59.00
44729;DHT22;30457;53.590;9.922;2023-04-01T15:36:43;10.50;59.20
44729;DHT22;30457;53.590;9.922;2023-04-01T15:41:15;10.50;59.30
44729;DHT22;30457;53.590;9.922;2023-04-01T15:45:46;10.50;59.80
44729;DHT22;30457;53.590;9.922;2023-04-01T16:04:39;10.50;59.10
44729;DHT22;30457;53.590;9.922;2023-04-01T16:22:59;10.20;59.00
44729;DHT22;30457;53.590;9.922;2023-04-01T16:32:18;10.10;59.00
44729;DHT22;30457;53.590;9.922;2023-04-01T16:41:36;10.00;59.10
44729;DHT22;30457;53.590;9.922;2023-04-01T16:51:03;10.00;59.10
44729;DHT22;30457;53.590;9.922;2023-04-01T17:09:44;9.70;59.00
44729;DHT22;30457;53.590;9.922;2023-04-01T17:14:31;9.70;59.00
44729;DHT22;30457;53.590;9.922;2023-04-01T17:19:48;9.60;58.90
44729;DHT22;30457;53.590;9.922;2023-04-01T17:24:47;9.60;58.50
44729;DHT22;30457;53.590;9.922;2023-04-01T17:39:02;9.50;58.60
44729;DHT22;30457;53.590;9.922;2023-04-01T17:43:48;9.50;58.50
44729;DHT22;30457;53.590;9.922;2023-04-01T17:53:14;9.40;58.30
44729;DHT22;30457;53.590;9.922;2023-04-01T17:58:00;9.40;58.00
44729;DHT22;30457;53.590;9.922;2023-04-01T18:12:30;9.30;58.40
44729;DHT22;30457;53.590;9.922;2023-04-01T18:21:53;9.30;58.30
44729;DHT22;30457;53.590;9.922;2023-04-01T18:26:24;9.30;58.60
44729;DHT22;30457;53.590;9.922;2023-04-01T18:31:17;9.30;58.60
44729;DHT22;30457;53.590;9.922;2023-04-01T18:36:13;9.30;58.30
44729;DHT22;30457;53.590;9.922;2023-04-01T18:59:39;9.20;57.60
44729;DHT22;30457;53.590;9.922;2023-04-01T19:04:18;9.10;57.10
44729;DHT22;30457;53.590;9.922;2023-04-01T19:08:46;9.10;57.00
44729;DHT22;30457;53.590;9.922;2023-04-01T19:27:53;8.80;56.20
44729;DHT22;30457;53.590;9.922;2023-04-01T19:32:37;8.70;56.20
44729;DHT22;30457;53.590;9.922;2023-04-01T19:37:25;8.70;56.20
44729;DHT22;30457;53.590;9.922;2023-04-01T19:42:04;8.60;56.10
44729;DHT22;30457;53.590;9.922;2023-04-01T19:46:44;8.60;56.30
44729;DHT22;30457;53.590;9.922;2023-04-01T19:51:34;8.50;56.40
44729;DHT22;30457;53.590;9.922;2023-04-01T19:56:15;8.50;55.70
44729;DHT22;30457;53.590;9.922;2023-04-01T20:00:46;8.50;55.60
44729;DHT22;30457;53.590;9.922;2023-04-01T20:05:25;8.40;55.80
44729;DHT22;30457;53.590;9.922;2023-04-01T20:18:58;8.20;55.40
44729;DHT22;30457;53.590;9.922;2023-04-01T20:28:11;8.20;55.50
44729;DHT22;30457;53.590;9.922;2023-04-01T20:33:02;8.10;55.70
44729;DHT22;30457;53.590;9.922;2023-04-01T20:37:42;8.10;55.80
44729;DHT22;30457;53.590;9.922;2023-04-01T20:42:22;8.00;55.80
44729;DHT22;30457;53.590;9.922;2023-04-01T20:46:56;8.00;55.50
44729;DHT22;30457;53.590;9.922;2023-04-01T20:51:30;8.00;55.40
44729;DHT22;30457;53.590;9.922;2023-04-01T20:56:06;8.00;54.80
44729;DHT22;30457;53.590;9.922;2023-04-01T21:00:54;7.90;54.70
44729;DHT22;30457;53.590;9.922;2023-04-01T21:05:33;7.80;54.60
44729;DHT22;30457;53.590;9.922;2023-04-01T21:15:03;7.70;54.70
44729;DHT22;30457;53.590;9.922;2023-04-01T22:02:49;7.10;55.70
44729;DHT22;30457;53.590;9.922;2023-04-01T22:07:20;7.10;55.80
44729;DHT22;30457;53.590;9.922;2023-04-01T22:12:09;7.10;56.00
44729;DHT22;30457;53.590;9.922;2023-04-01T22:17:05;7.10;55.50
44729;DHT22;30457;53.590;9.922;2023-04-01T22:21:39;7.00;55.60
44729;DHT22;30457;53.590;9.922;2023-04-01T22:26:14;7.00;55.70
44729;DHT22;30457;53.590;9.922;2023-04-01T22:30:52;6.90;55.50
44729;DHT22;30457;53.590;9.922;2023-04-01T22:35:49;6.90;55.60
44729;DHT22;30457;53.590;9.922;2023-04-01T22:49:50;6.80;55.60
44729;DHT22;30457;53.590;9.922;2023-04-01T22:54:42;6.70;55.60
44729;DHT22;30457;53.590;9.922;2023-04-01T22:59:19;6.70;55.60
44729;DHT22;30457;53.590;9.922;2023-04-01T23:03:49;6.60;55.80
44729;DHT22;30457;53.590;9.922;2023-04-01T23:13:26;6.60;55.80
44729;DHT22;30457;53.590;9.922;2023-04-01T23:18:02;6.50;55.90
44729;DHT22;30457;53.590;9.922;2023-04-01T23:27:08;6.50;56.00
44729;DHT22;30457;53.590;9.922;2023-04-01T23:31:44;6.50;55.90
44729;DHT22;30457;53.590;9.922;2023-04-01T23:36:13;6.50;55.90
44729;DHT22;30457;53.590;9.922;2023-04-01T23:40:40;6.40;55.80
44729;DHT22;30457;53.590;9.922;2023-04-01T23:45:15;6.40;55.80
44729;DHT22;30457;53.590;9.922;2023-04-01T23:49:48;6.40;55.70
44729;DHT22;30457;53.590;9.922;2023-04-01T23:54:19;6.40;55.70
44729;DHT22;30457;53.590;9.922;2023-04-01T23:58:52;6.30;55.50
